createdAt,value
2018-04-17T00:01:38.101Z,45.20
2018-04-17T00:04:06.368Z,45.60
2018-04-17T00:06:34.636Z,45.30
2018-04-17T00:09:02.943Z,45.50
2018-04-17T00:11:31.953Z,45.60
2018-04-17T00:14:00.228Z,45.90
2018-04-17T00:16:28.488Z,45.60
2018-04-17T00:18:56.807Z,45.90
2018-04-17T00:21:25.072Z,46.00
2018-04-17T00:23:53.492Z,46.20
2018-04-17T00:26:22.673Z,46.50
2018-04-17T00:28:52.415Z,46.40
2018-04-17T00:31:21.420Z,46.40
2018-04-17T00:33:50.629Z,46.40
2018-04-17T00:36:19.432Z,46.40
2018-04-17T00:38:47.696Z,46.30
2018-04-17T00:41:16.109Z,46.80
2018-04-17T00:43:44.356Z,46.70
2018-04-17T00:46:12.609Z,46.70
2018-04-17T00:48:40.956Z,46.70
2018-04-17T00:51:09.247Z,47.00
2018-04-17T00:53:49.520Z,47.10
2018-04-17T00:56:17.800Z,47.20
2018-04-17T00:58:46.083Z,47.20
2018-04-17T01:01:14.332Z,47.10
2018-04-17T01:03:42.598Z,47.30
2018-04-17T01:06:11.744Z,47.60
2018-04-17T01:08:41.544Z,47.80
2018-04-17T01:11:09.793Z,47.70
2018-04-17T01:13:38.173Z,47.90
2018-04-17T01:16:06.556Z,47.60
2018-04-17T01:18:34.792Z,47.90
2018-04-17T01:21:03.059Z,48.10
2018-04-17T01:23:31.310Z,47.90
2018-04-17T01:25:59.574Z,48.00
2018-04-17T01:28:27.850Z,48.00
2018-04-17T01:30:56.111Z,47.90
2018-04-17T01:33:24.388Z,48.10
2018-04-17T01:35:53.426Z,48.10
2018-04-17T01:38:21.762Z,48.10
2018-04-17T01:40:50.848Z,48.50
2018-04-17T01:43:19.082Z,48.20
2018-04-17T01:45:47.341Z,48.00
2018-04-17T01:48:15.625Z,48.20
2018-04-17T01:50:43.909Z,48.00
2018-04-17T01:53:12.196Z,48.10
2018-04-17T01:55:40.434Z,48.30
2018-04-17T01:58:08.707Z,48.40
2018-04-17T02:00:36.949Z,49.10
2018-04-17T02:03:05.207Z,48.70
2018-04-17T02:05:33.495Z,48.70
2018-04-17T02:08:01.762Z,48.90
2018-04-17T02:10:30.785Z,48.90
2018-04-17T02:12:59.043Z,49.00
2018-04-17T02:15:28.258Z,49.00
2018-04-17T02:17:57.088Z,49.30
2018-04-17T02:20:26.080Z,49.40
2018-04-17T02:22:54.373Z,49.50
2018-04-17T02:25:22.634Z,49.30
2018-04-17T02:27:50.998Z,49.60
2018-04-17T02:30:19.330Z,49.50
2018-04-17T02:32:47.652Z,49.70
2018-04-17T02:35:15.929Z,49.40
2018-04-17T02:37:44.270Z,49.60
2018-04-17T02:40:12.558Z,49.40
2018-04-17T02:42:40.826Z,49.50
2018-04-17T02:45:09.123Z,49.60
2018-04-17T02:47:38.303Z,49.60
2018-04-17T02:50:06.552Z,49.60
2018-04-17T02:52:36.902Z,49.60
2018-04-17T02:55:05.160Z,49.50
2018-04-17T02:57:33.444Z,49.60
2018-04-17T03:00:01.703Z,49.60
2018-04-17T03:02:30.005Z,49.60
2018-04-17T03:04:58.253Z,49.60
2018-04-17T03:07:27.349Z,49.50
2018-04-17T03:09:55.603Z,49.30
2018-04-17T03:12:23.856Z,49.40
2018-04-17T03:14:52.168Z,49.10
2018-04-17T03:17:20.424Z,49.30
2018-04-17T03:19:48.692Z,49.40
2018-04-17T03:22:16.973Z,49.30
2018-04-17T03:24:45.209Z,49.10
2018-04-17T03:27:13.513Z,49.50
2018-04-17T03:29:41.797Z,49.30
2018-04-17T03:32:11.269Z,49.20
2018-04-17T03:34:40.393Z,49.20
2018-04-17T03:37:08.668Z,49.30
2018-04-17T03:39:37.720Z,49.50
2018-04-17T03:42:05.980Z,49.60
2018-04-17T03:44:34.231Z,49.50
2018-04-17T03:47:02.526Z,49.70
2018-04-17T03:49:30.863Z,49.50
2018-04-17T03:51:59.188Z,49.70
2018-04-17T03:54:27.420Z,50.00
2018-04-17T03:56:55.677Z,49.90
2018-04-17T03:59:23.977Z,50.00
2018-04-17T04:01:52.237Z,49.70
2018-04-17T04:04:20.504Z,49.90
2018-04-17T04:06:48.768Z,50.00
2018-04-17T04:09:17.058Z,49.90
2018-04-17T04:11:45.309Z,50.20
2018-04-17T04:14:14.324Z,49.90
2018-04-17T04:16:56.743Z,50.00
2018-04-17T04:19:37.188Z,50.20
2018-04-17T04:22:17.514Z,50.10
2018-04-17T04:24:59.095Z,50.30
2018-04-17T04:27:28.148Z,50.40
2018-04-17T04:29:56.383Z,50.40
2018-04-17T04:32:24.786Z,50.40
2018-04-17T04:34:53.815Z,50.50
2018-04-17T04:37:22.937Z,50.20
2018-04-17T04:39:51.244Z,50.20
2018-04-17T04:42:19.526Z,50.80
2018-04-17T04:44:48.580Z,50.80
2018-04-17T04:47:16.943Z,51.00
2018-04-17T04:49:45.229Z,51.00
2018-04-17T04:52:14.257Z,50.60
2018-04-17T04:54:42.515Z,50.80
2018-04-17T04:57:10.927Z,50.80
2018-04-17T04:59:39.199Z,50.60
2018-04-17T05:02:07.425Z,50.70
2018-04-17T05:04:36.621Z,50.60
2018-04-17T05:07:04.912Z,50.70
2018-04-17T05:09:33.476Z,51.20
2018-04-17T05:12:02.529Z,50.70
2018-04-17T05:14:30.764Z,50.60
2018-04-17T05:16:59.821Z,50.80
2018-04-17T05:19:30.225Z,50.70
2018-04-17T05:21:59.418Z,50.70
2018-04-17T05:24:27.783Z,51.00
2018-04-17T05:26:56.355Z,51.00
2018-04-17T05:29:25.410Z,51.30
2018-04-17T05:31:54.664Z,51.20
2018-04-17T05:34:22.947Z,51.60
2018-04-17T05:36:51.292Z,51.30
2018-04-17T05:39:20.558Z,51.30
2018-04-17T05:41:48.809Z,51.60
2018-04-17T05:44:17.149Z,51.30
2018-04-17T05:46:45.396Z,51.40
2018-04-17T05:49:13.719Z,51.40
2018-04-17T05:51:43.028Z,51.60
2018-04-17T05:54:13.035Z,51.80
2018-04-17T05:56:41.301Z,51.70
2018-04-17T05:59:10.468Z,52.00
2018-04-17T06:01:38.750Z,51.90
2018-04-17T06:04:07.672Z,51.80
2018-04-17T06:06:35.980Z,52.00
2018-04-17T06:09:07.036Z,51.90
2018-04-17T06:11:36.184Z,51.80
2018-04-17T06:14:04.472Z,51.80
2018-04-17T06:16:32.757Z,51.90
2018-04-17T06:19:01.020Z,51.70
2018-04-17T06:21:29.304Z,51.70
2018-04-17T06:23:57.598Z,51.70
2018-04-17T06:26:25.975Z,51.70
2018-04-17T06:28:54.345Z,51.80
2018-04-17T06:31:22.609Z,51.90
2018-04-17T06:33:50.900Z,51.80
2018-04-17T06:36:19.195Z,52.00
2018-04-17T06:38:47.477Z,52.30
2018-04-17T06:41:16.544Z,51.70
2018-04-17T06:43:46.555Z,51.60
2018-04-17T06:46:14.817Z,51.70
2018-04-17T06:48:43.074Z,52.00
2018-04-17T06:51:12.866Z,52.00
2018-04-17T06:53:41.233Z,51.90
2018-04-17T06:56:09.495Z,51.70
2018-04-17T06:58:38.592Z,52.60
2018-04-17T07:01:06.861Z,52.60
2018-04-17T07:03:35.935Z,52.60
2018-04-17T07:06:04.213Z,52.90
2018-04-17T07:08:32.496Z,52.50
2018-04-17T07:11:02.319Z,51.80
2018-04-17T07:13:30.720Z,52.20
2018-04-17T07:16:01.381Z,51.80
2018-04-17T07:18:30.436Z,52.00
2018-04-17T07:20:58.751Z,51.40
2018-04-17T07:23:27.766Z,51.80
2018-04-17T07:25:56.791Z,52.10
2018-04-17T07:28:25.167Z,52.20
2018-04-17T07:30:53.433Z,52.30
2018-04-17T07:33:21.872Z,51.60
2018-04-17T07:35:50.123Z,51.20
2018-04-17T07:38:18.368Z,51.10
2018-04-17T07:40:46.645Z,51.00
2018-04-17T07:43:15.640Z,50.80
2018-04-17T07:45:44.693Z,51.00
2018-04-17T07:48:25.959Z,51.00
2018-04-17T07:50:54.216Z,50.90
2018-04-17T07:53:22.505Z,50.80
2018-04-17T07:55:50.777Z,50.90
2018-04-17T07:58:19.069Z,50.20
2018-04-17T08:00:47.378Z,50.00
2018-04-17T08:03:15.617Z,49.60
2018-04-17T08:05:43.959Z,49.70
2018-04-17T08:08:12.249Z,49.40
2018-04-17T08:10:41.256Z,48.90
2018-04-17T08:13:10.285Z,48.80
2018-04-17T08:15:38.583Z,48.70
2018-04-17T08:18:08.346Z,48.10
2018-04-17T08:20:36.589Z,48.10
2018-04-17T08:23:04.832Z,47.40
2018-04-17T08:25:33.129Z,46.70
2018-04-17T08:28:02.324Z,46.00
2018-04-17T08:30:30.612Z,45.70
2018-04-17T08:32:58.895Z,45.30
2018-04-17T08:35:29.020Z,44.90
2018-04-17T08:37:57.288Z,45.20
2018-04-17T08:40:26.668Z,44.80
2018-04-17T08:42:54.947Z,44.60
2018-04-17T08:45:23.223Z,44.10
2018-04-17T08:47:52.248Z,43.60
2018-04-17T08:50:20.505Z,43.40
2018-04-17T08:52:49.725Z,43.50
2018-04-17T08:55:19.334Z,43.20
2018-04-17T08:57:47.625Z,43.00
2018-04-17T09:00:15.894Z,42.90
2018-04-17T09:02:44.169Z,42.80
2018-04-17T09:05:12.663Z,42.40
2018-04-17T09:07:40.906Z,42.40
2018-04-17T09:10:09.928Z,42.20
2018-04-17T09:12:38.955Z,41.40
2018-04-17T09:15:07.184Z,41.10
2018-04-17T09:17:36.258Z,40.80
2018-04-17T09:20:04.474Z,40.20
2018-04-17T09:22:33.517Z,39.40
2018-04-17T09:25:01.792Z,39.50
2018-04-17T09:27:31.034Z,40.80
2018-04-17T09:29:59.275Z,40.80
2018-04-17T09:32:27.510Z,40.50
2018-04-17T09:34:56.616Z,40.00
2018-04-17T09:37:25.652Z,39.60
2018-04-17T09:39:53.955Z,39.70
2018-04-17T09:42:22.816Z,39.50
2018-04-17T09:44:51.776Z,38.80
2018-04-17T09:47:20.820Z,39.70
2018-04-17T09:49:49.048Z,38.80
2018-04-17T09:52:17.329Z,39.60
2018-04-17T09:54:46.470Z,39.00
2018-04-17T09:57:14.803Z,38.20
2018-04-17T09:59:43.056Z,37.60
2018-04-17T10:02:11.360Z,38.80
2018-04-17T10:04:39.588Z,39.40
2018-04-17T10:07:07.858Z,38.10
2018-04-17T10:09:36.202Z,38.30
2018-04-17T10:12:04.418Z,38.20
2018-04-17T10:14:35.143Z,37.50
2018-04-17T10:17:03.411Z,37.80
2018-04-17T10:19:31.635Z,38.10
2018-04-17T10:21:59.913Z,38.40
2018-04-17T10:24:28.188Z,37.20
2018-04-17T10:26:57.485Z,36.90
2018-04-17T10:29:25.743Z,36.80
2018-04-17T10:31:54.947Z,36.20
2018-04-17T10:34:23.968Z,36.10
2018-04-17T10:36:52.249Z,36.00
2018-04-17T10:39:20.599Z,35.90
2018-04-17T10:41:56.291Z,35.70
2018-04-17T10:44:24.700Z,35.60
2018-04-17T10:46:52.996Z,35.60
2018-04-17T10:49:21.231Z,35.70
2018-04-17T10:51:49.508Z,35.60
2018-04-17T10:54:17.759Z,35.70
2018-04-17T10:56:46.791Z,35.40
2018-04-17T10:59:15.045Z,35.40
2018-04-17T11:01:44.105Z,34.40
2018-04-17T11:04:12.346Z,34.40
2018-04-17T11:06:40.699Z,34.50
2018-04-17T11:09:10.740Z,34.20
2018-04-17T11:11:39.955Z,34.20
2018-04-17T11:14:09.027Z,34.30
2018-04-17T11:16:38.760Z,34.40
2018-04-17T11:19:07.095Z,34.40
2018-04-17T11:21:35.380Z,34.40
2018-04-17T11:24:03.828Z,34.40
2018-04-17T11:26:32.095Z,33.90
2018-04-17T11:29:00.353Z,33.20
2018-04-17T11:31:28.605Z,33.70
2018-04-17T11:33:56.845Z,33.70
2018-04-17T11:36:25.133Z,33.80
2018-04-17T11:38:53.381Z,33.40
2018-04-17T11:41:21.678Z,33.20
2018-04-17T11:43:49.945Z,33.20
2018-04-17T11:46:18.197Z,32.90
2018-04-17T11:48:47.314Z,31.70
2018-04-17T11:51:15.661Z,32.10
2018-04-17T11:53:43.912Z,32.40
2018-04-17T11:56:12.189Z,32.40
2018-04-17T11:58:40.495Z,32.20
2018-04-17T12:01:08.728Z,32.30
2018-04-17T12:03:37.754Z,31.80
2018-04-17T12:06:05.992Z,31.60
2018-04-17T12:08:35.016Z,31.60
2018-04-17T12:11:05.096Z,31.60
2018-04-17T12:13:33.431Z,30.80
2018-04-17T12:16:01.713Z,30.40
2018-04-17T12:18:29.957Z,31.00
2018-04-17T12:20:58.976Z,31.70
2018-04-17T12:23:27.240Z,31.60
2018-04-17T12:25:55.940Z,31.20
2018-04-17T12:28:24.233Z,31.60
2018-04-17T12:30:52.518Z,31.60
2018-04-17T12:33:20.800Z,30.90
2018-04-17T12:35:49.118Z,31.30
2018-04-17T12:38:17.376Z,31.10
2018-04-17T12:40:45.664Z,31.50
2018-04-17T12:43:13.935Z,31.20
2018-04-17T12:45:42.238Z,31.50
2018-04-17T12:48:10.503Z,31.30
2018-04-17T12:50:38.801Z,31.40
2018-04-17T12:53:07.881Z,30.70
2018-04-17T12:55:36.138Z,30.70
2018-04-17T12:58:04.412Z,30.60
2018-04-17T13:00:32.688Z,30.80
2018-04-17T13:03:01.113Z,30.80
2018-04-17T13:05:29.357Z,30.80
2018-04-17T13:07:57.621Z,30.90
2018-04-17T13:10:25.892Z,30.90
2018-04-17T13:12:55.803Z,31.00
2018-04-17T13:15:24.061Z,30.90
2018-04-17T13:17:52.355Z,31.00
2018-04-17T13:20:20.600Z,30.90
2018-04-17T13:22:48.861Z,30.90
2018-04-17T13:25:17.233Z,31.00
2018-04-17T13:27:45.460Z,31.00
2018-04-17T13:30:13.732Z,31.10
2018-04-17T13:32:41.986Z,30.60
2018-04-17T13:35:10.232Z,30.10
2018-04-17T13:37:39.265Z,30.00
2018-04-17T13:40:07.542Z,29.90
2018-04-17T13:42:35.801Z,30.30
2018-04-17T13:45:04.840Z,29.80
2018-04-17T13:47:34.758Z,30.00
2018-04-17T13:50:03.036Z,30.00
2018-04-17T13:52:31.349Z,30.00
2018-04-17T13:54:59.576Z,29.40
2018-04-17T13:57:27.837Z,29.70
2018-04-17T13:59:56.947Z,29.90
2018-04-17T14:02:25.248Z,29.90
2018-04-17T14:04:54.283Z,29.80
2018-04-17T14:07:26.593Z,29.80
2018-04-17T14:09:55.632Z,29.60
2018-04-17T14:12:24.069Z,29.60
2018-04-17T14:14:52.422Z,30.10
2018-04-17T14:17:20.692Z,29.80
2018-04-17T14:19:48.916Z,30.00
2018-04-17T14:22:18.816Z,30.20
2018-04-17T14:24:52.156Z,30.20
2018-04-17T14:27:20.422Z,30.10
2018-04-17T14:29:49.556Z,30.00
2018-04-17T14:32:17.859Z,29.90
2018-04-17T14:34:46.079Z,29.80
2018-04-17T14:37:14.459Z,29.80
2018-04-17T14:39:44.234Z,29.50
2018-04-17T14:42:12.589Z,29.50
2018-04-17T14:44:40.853Z,29.50
2018-04-17T14:47:09.134Z,29.20
2018-04-17T14:49:37.360Z,29.20
2018-04-17T14:52:05.620Z,29.40
2018-04-17T14:54:33.908Z,29.60
2018-04-17T14:57:02.940Z,29.40
2018-04-17T14:59:31.963Z,29.50
2018-04-17T15:02:00.242Z,29.50
2018-04-17T15:04:28.487Z,29.40
2018-04-17T15:06:56.755Z,29.20
2018-04-17T15:09:25.044Z,29.40
2018-04-17T15:11:53.337Z,29.40
2018-04-17T15:14:21.578Z,29.20
2018-04-17T15:16:49.832Z,28.80
2018-04-17T15:19:18.112Z,29.10
2018-04-17T15:21:48.120Z,28.90
2018-04-17T15:24:16.400Z,28.90
2018-04-17T15:26:44.741Z,28.50
2018-04-17T15:29:12.991Z,28.60
2018-04-17T15:31:41.219Z,28.40
2018-04-17T15:34:10.771Z,28.90
2018-04-17T15:36:39.026Z,28.40
2018-04-17T15:39:07.350Z,28.20
2018-04-17T15:41:35.607Z,28.30
2018-04-17T15:44:04.722Z,28.20
2018-04-17T15:46:33.455Z,28.20
2018-04-17T15:49:01.721Z,28.50
2018-04-17T15:51:30.066Z,28.30
2018-04-17T15:53:58.309Z,28.40
2018-04-17T15:56:27.388Z,28.40
2018-04-17T15:58:56.557Z,28.40
2018-04-17T16:01:24.822Z,28.10
2018-04-17T16:03:53.291Z,28.30
2018-04-17T16:06:22.374Z,28.20
2018-04-17T16:08:51.395Z,28.30
2018-04-17T16:11:22.852Z,28.70
2018-04-17T16:13:51.860Z,28.70
2018-04-17T16:16:20.101Z,28.60
2018-04-17T16:18:49.160Z,28.70
2018-04-17T16:21:17.400Z,28.60
2018-04-17T16:23:45.701Z,28.90
2018-04-17T16:26:13.940Z,28.70
2018-04-17T16:28:42.989Z,28.60
2018-04-17T16:31:11.220Z,28.60
2018-04-17T16:33:39.507Z,29.10
2018-04-17T16:36:08.556Z,29.00
2018-04-17T16:38:36.835Z,28.90
2018-04-17T16:41:05.106Z,28.90
2018-04-17T16:43:33.341Z,29.10
2018-04-17T16:46:02.446Z,29.60
2018-04-17T16:48:31.508Z,29.20
2018-04-17T16:50:59.723Z,29.20
2018-04-17T16:53:28.115Z,29.20
2018-04-17T16:55:56.476Z,29.30
2018-04-17T16:58:24.848Z,29.40
2018-04-17T17:00:53.150Z,29.70
2018-04-17T17:03:21.393Z,29.10
2018-04-17T17:05:49.689Z,29.70
2018-04-17T17:08:18.017Z,29.30
2018-04-17T17:10:46.294Z,29.40
2018-04-17T17:13:15.468Z,29.50
2018-04-17T17:15:43.716Z,29.40
2018-04-17T17:18:11.996Z,29.40
2018-04-17T17:20:40.219Z,29.30
2018-04-17T17:23:09.247Z,29.40
2018-04-17T17:25:37.497Z,29.40
2018-04-17T17:28:06.699Z,29.50
2018-04-17T17:30:35.729Z,29.60
2018-04-17T17:33:03.995Z,29.50
2018-04-17T17:35:33.117Z,29.50
2018-04-17T17:38:01.389Z,29.70
2018-04-17T17:40:29.705Z,29.60
2018-04-17T17:43:01.203Z,29.80
2018-04-17T17:45:29.700Z,29.70
2018-04-17T17:47:57.950Z,29.50
2018-04-17T17:50:29.136Z,29.10
2018-04-17T17:52:57.619Z,29.00
2018-04-17T17:55:25.872Z,29.10
2018-04-17T17:57:54.177Z,29.00
2018-04-17T18:00:22.423Z,29.00
2018-04-17T18:02:50.887Z,28.90
2018-04-17T18:05:19.109Z,28.90
2018-04-17T18:07:48.437Z,29.00
2018-04-17T18:10:16.725Z,29.20
2018-04-17T18:12:45.031Z,29.30
2018-04-17T18:15:13.283Z,29.40
2018-04-17T18:17:42.370Z,29.70
2018-04-17T18:20:10.635Z,29.60
2018-04-17T18:22:38.879Z,29.80
2018-04-17T18:25:07.163Z,30.10
2018-04-17T18:27:36.181Z,30.60
2018-04-17T18:30:05.228Z,30.10
2018-04-17T18:32:33.482Z,30.10
2018-04-17T18:35:01.761Z,30.30
2018-04-17T18:37:30.029Z,30.70
2018-04-17T18:39:58.433Z,31.20
2018-04-17T18:42:26.762Z,31.20
2018-04-17T18:44:55.129Z,31.80
2018-04-17T18:47:24.286Z,32.40
2018-04-17T18:49:52.524Z,32.60
2018-04-17T18:52:20.776Z,32.40
2018-04-17T18:54:49.044Z,32.20
2018-04-17T18:57:17.355Z,32.10
2018-04-17T18:59:45.607Z,32.30
2018-04-17T19:02:13.870Z,33.00
2018-04-17T19:04:42.136Z,33.50
2018-04-17T19:07:10.397Z,33.70
2018-04-17T19:09:39.447Z,34.50
2018-04-17T19:12:07.762Z,33.80
2018-04-17T19:14:36.023Z,33.90
2018-04-17T19:17:04.314Z,34.10
2018-04-17T19:19:32.586Z,33.90
2018-04-17T19:22:00.863Z,34.00
2018-04-17T19:24:29.324Z,34.70
2018-04-17T19:26:57.747Z,34.10
2018-04-17T19:29:26.004Z,34.10
2018-04-17T19:31:54.260Z,34.20
2018-04-17T19:34:22.531Z,34.00
2018-04-17T19:36:50.836Z,35.00
2018-04-17T19:39:19.100Z,34.60
2018-04-17T19:41:47.363Z,34.40
2018-04-17T19:44:16.996Z,34.70
2018-04-17T19:46:46.213Z,34.70
2018-04-17T19:49:14.496Z,34.60
2018-04-17T19:51:42.765Z,34.70
2018-04-17T19:54:11.819Z,35.10
2018-04-17T19:56:42.954Z,35.10
2018-04-17T19:59:11.180Z,35.20
2018-04-17T20:01:39.464Z,35.40
2018-04-17T20:04:07.757Z,35.50
2018-04-17T20:06:36.050Z,35.60
2018-04-17T20:09:06.150Z,35.60
2018-04-17T20:11:34.451Z,35.70
2018-04-17T20:14:02.694Z,35.50
2018-04-17T20:16:31.749Z,35.70
2018-04-17T20:18:59.988Z,35.70
2018-04-17T20:21:28.805Z,35.90
2018-04-17T20:23:57.275Z,35.90
2018-04-17T20:26:25.564Z,35.90
2018-04-17T20:28:53.825Z,35.90
2018-04-17T20:31:22.116Z,36.20
2018-04-17T20:33:50.465Z,36.20
2018-04-17T20:36:19.475Z,36.50
2018-04-17T20:38:48.581Z,36.50
2018-04-17T20:41:18.415Z,36.70
2018-04-17T20:43:46.684Z,36.70
2018-04-17T20:46:16.601Z,36.80
2018-04-17T20:48:44.860Z,37.00
2018-04-17T20:51:13.194Z,37.00
2018-04-17T20:53:42.464Z,37.40
2018-04-17T20:56:12.257Z,37.70
2018-04-17T20:58:41.995Z,37.40
2018-04-17T21:01:10.333Z,37.70
2018-04-17T21:03:38.545Z,37.80
2018-04-17T21:06:07.606Z,37.30
2018-04-17T21:08:35.917Z,37.20
2018-04-17T21:11:04.128Z,37.30
2018-04-17T21:13:32.391Z,37.40
2018-04-17T21:16:00.682Z,37.50
2018-04-17T21:18:28.925Z,38.00
2018-04-17T21:20:58.723Z,37.90
2018-04-17T21:23:27.868Z,38.30
2018-04-17T21:25:56.612Z,38.60
2018-04-17T21:28:25.772Z,38.60
2018-04-17T21:30:54.100Z,38.70
2018-04-17T21:33:24.292Z,38.60
2018-04-17T21:35:52.646Z,38.40
2018-04-17T21:38:22.032Z,38.70
2018-04-17T21:40:50.365Z,38.90
2018-04-17T21:43:18.770Z,39.10
2018-04-17T21:45:47.100Z,39.70
2018-04-17T21:48:15.372Z,39.20
2018-04-17T21:50:43.796Z,39.40
2018-04-17T21:53:12.107Z,39.10
2018-04-17T21:55:40.357Z,39.50
2018-04-17T21:58:08.658Z,39.30
2018-04-17T22:00:36.935Z,39.60
2018-04-17T22:03:07.104Z,39.80
2018-04-17T22:05:35.448Z,39.80
2018-04-17T22:08:05.416Z,40.20
2018-04-17T22:10:33.626Z,40.20
2018-04-17T22:13:02.002Z,40.40
2018-04-17T22:15:30.233Z,40.20
2018-04-17T22:17:59.260Z,40.40
2018-04-17T22:20:27.513Z,40.20
2018-04-17T22:22:55.846Z,40.30
2018-04-17T22:25:25.051Z,40.30
2018-04-17T22:27:53.272Z,40.80
2018-04-17T22:30:22.418Z,40.90
2018-04-17T22:32:50.692Z,40.80
2018-04-17T22:35:18.945Z,40.90
2018-04-17T22:37:47.273Z,40.70
2018-04-17T22:40:15.518Z,41.10
2018-04-17T22:42:43.754Z,42.10
2018-04-17T22:45:12.032Z,41.90
2018-04-17T22:47:40.271Z,41.90
2018-04-17T22:50:08.554Z,42.20
2018-04-17T22:52:36.831Z,42.30
2018-04-17T22:55:05.256Z,42.60
2018-04-17T22:57:33.579Z,42.70
2018-04-17T23:00:01.861Z,42.80
2018-04-17T23:02:29.913Z,42.90
2018-04-17T23:04:58.198Z,43.00
2018-04-17T23:07:27.245Z,43.30
2018-04-17T23:09:55.521Z,43.40
2018-04-17T23:12:23.802Z,43.70
2018-04-17T23:14:52.063Z,43.40
2018-04-17T23:17:20.352Z,43.40
2018-04-17T23:19:48.595Z,43.30
2018-04-17T23:22:17.694Z,43.60
2018-04-17T23:24:46.803Z,43.90
2018-04-17T23:27:15.871Z,43.90
2018-04-17T23:29:44.120Z,43.90
2018-04-17T23:32:12.451Z,44.00
2018-04-17T23:34:40.684Z,44.20
2018-04-17T23:37:09.410Z,44.10
2018-04-17T23:39:37.660Z,44.20
2018-04-17T23:42:06.021Z,44.00
2018-04-17T23:44:34.400Z,44.30
2018-04-17T23:47:02.731Z,44.10
2018-04-17T23:49:31.040Z,44.10
2018-04-17T23:52:00.076Z,44.30
2018-04-17T23:54:28.340Z,44.10
2018-04-17T23:56:57.672Z,44.40
2018-04-17T23:59:26.739Z,44.50
